Terminal Aerodrome Forecast
Issued by NWS

Home | Current Version | Previous Version | Text Only | Print | Product List | Glossary On
Versions: 1 2 3 4 5 6 7 8 9 10 11 12 13 14 15 16 17 18 19 20
000
FTAK31 PAJN 302339
TAFAPG
TAF
PAPG 302339Z 3100/3124 06005KT 6SM -RA FEW015 BKN025 OVC035
      TEMPO 3102/3106 VRB03KT 3SM -RA BR SCT015 OVC025
     FM310900 00000KT 4SM -SHRA BR BKN012 OVC025
     FM311200 00000KT 2SM -SHRA BR OVC015
     FM311800 00000KT 4SM -SHRA BR BKN015 OVC025
     FM312100 06005KT 6SM -SHRA BR BKN025 OVC050
      AMD LTD TO CLD VIS AND WIND 3106/3115=

USA.gov is the U.S. government's official web portal to all federal, state and local government web resources and services.